createdAt,value
2019-05-21T00:00:01.800Z,91.00
2019-05-21T00:02:30.449Z,91.00
2019-05-21T00:04:59.177Z,90.80
2019-05-21T00:07:27.897Z,90.50
2019-05-21T00:09:56.648Z,90.70
2019-05-21T00:12:25.262Z,90.50
2019-05-21T00:14:53.973Z,90.40
2019-05-21T00:17:22.534Z,90.50
2019-05-21T00:19:51.241Z,90.50
2019-05-21T00:22:19.979Z,90.50
2019-05-21T00:24:49.053Z,90.50
2019-05-21T00:27:17.711Z,90.50
2019-05-21T00:30:22.456Z,90.70
2019-05-21T00:33:26.854Z,90.70
2019-05-21T00:36:33.049Z,90.60
2019-05-21T00:39:37.449Z,90.60
2019-05-21T00:42:08.848Z,90.80
2019-05-21T00:44:40.567Z,90.90
2019-05-21T00:47:10.812Z,90.90
2019-05-21T00:49:39.625Z,91.00
2019-05-21T00:52:09.363Z,90.90
2019-05-21T00:54:38.276Z,91.00
2019-05-21T00:57:07.024Z,91.10
2019-05-21T00:59:35.749Z,91.10
2019-05-21T01:02:04.453Z,91.20
2019-05-21T01:04:33.249Z,91.10
2019-05-21T01:07:02.040Z,90.80
2019-05-21T01:09:30.907Z,90.80
2019-05-21T01:11:59.694Z,91.10
2019-05-21T01:14:28.399Z,91.30
2019-05-21T01:16:57.040Z,91.30
2019-05-21T01:19:25.861Z,91.40
2019-05-21T01:21:54.536Z,91.50
2019-05-21T01:24:23.210Z,91.30
2019-05-21T01:26:51.967Z,91.40
2019-05-21T01:29:20.575Z,91.50
2019-05-21T01:31:49.201Z,91.60
2019-05-21T01:34:17.952Z,91.70
2019-05-21T01:36:46.560Z,91.70
2019-05-21T01:39:15.334Z,91.80
2019-05-21T01:41:43.978Z,91.70
2019-05-21T01:44:12.692Z,91.80
2019-05-21T01:46:41.302Z,92.20
2019-05-21T01:49:10.099Z,92.00
2019-05-21T01:51:38.717Z,92.00
2019-05-21T01:54:07.270Z,92.20
2019-05-21T01:56:35.845Z,92.40
2019-05-21T01:59:06.031Z,92.70
2019-05-21T02:01:34.580Z,92.70
2019-05-21T02:04:03.267Z,92.80
2019-05-21T02:06:31.970Z,92.80
2019-05-21T02:09:00.563Z,92.80
2019-05-21T02:11:29.367Z,92.90
2019-05-21T02:13:58.163Z,92.90
2019-05-21T02:16:26.832Z,92.90
2019-05-21T02:18:55.505Z,92.70
2019-05-21T02:21:24.217Z,92.60
2019-05-21T02:23:52.852Z,92.40
2019-05-21T02:26:21.500Z,92.30
2019-05-21T02:28:50.104Z,92.30
2019-05-21T02:31:18.735Z,92.30
2019-05-21T02:33:47.522Z,92.40
2019-05-21T02:36:16.222Z,92.40
2019-05-21T02:38:44.952Z,92.30
2019-05-21T02:41:13.758Z,92.30
2019-05-21T02:43:42.506Z,92.30
2019-05-21T02:46:11.197Z,92.40
2019-05-21T02:48:39.961Z,92.50
2019-05-21T02:51:08.681Z,92.50
2019-05-21T02:53:37.367Z,92.60
2019-05-21T02:56:06.025Z,92.50
2019-05-21T02:58:34.706Z,92.70
2019-05-21T03:01:11.243Z,92.90
2019-05-21T03:03:40.152Z,92.90
2019-05-21T03:06:14.273Z,92.80
2019-05-21T03:08:39.185Z,92.80
2019-05-21T03:11:07.887Z,92.90
2019-05-21T03:13:36.503Z,93.00
2019-05-21T03:16:05.375Z,92.80
2019-05-21T03:18:34.089Z,92.80
2019-05-21T03:21:02.776Z,92.60
2019-05-21T03:23:31.641Z,92.60
2019-05-21T03:26:00.704Z,92.70
2019-05-21T03:28:29.418Z,92.70
2019-05-21T03:30:58.634Z,92.60
2019-05-21T03:33:27.705Z,92.50
2019-05-21T03:35:56.787Z,92.40
2019-05-21T03:38:25.995Z,92.30
2019-05-21T03:40:55.066Z,92.20
2019-05-21T03:43:24.126Z,92.00
2019-05-21T03:45:54.213Z,92.00
2019-05-21T03:48:23.327Z,92.00
2019-05-21T03:50:52.637Z,92.00
2019-05-21T03:53:21.873Z,91.80
2019-05-21T03:55:50.998Z,91.70
2019-05-21T03:58:20.042Z,91.50
2019-05-21T04:00:49.301Z,91.40
2019-05-21T04:03:18.450Z,91.20
2019-05-21T04:05:47.880Z,91.10
2019-05-21T04:08:17.125Z,91.00
2019-05-21T04:10:46.332Z,91.20
2019-05-21T04:13:15.499Z,91.30
2019-05-21T04:15:55.018Z,91.30
2019-05-21T04:18:25.608Z,91.40
2019-05-21T04:20:54.864Z,91.50
2019-05-21T04:23:25.479Z,91.50
2019-05-21T04:25:54.489Z,91.50
2019-05-21T04:28:23.651Z,91.20
2019-05-21T04:30:52.857Z,91.20
2019-05-21T04:33:21.989Z,91.00
2019-05-21T04:35:51.720Z,90.90
2019-05-21T04:38:20.916Z,90.70
2019-05-21T04:40:49.996Z,90.80
2019-05-21T04:43:19.269Z,90.70
2019-05-21T04:45:48.554Z,90.60
2019-05-21T04:48:17.736Z,90.40
2019-05-21T04:50:46.951Z,90.30
2019-05-21T04:53:16.022Z,90.50
2019-05-21T04:55:45.289Z,90.50
2019-05-21T04:58:14.569Z,90.40
2019-05-21T05:00:43.852Z,90.50
2019-05-21T05:03:13.078Z,90.60
2019-05-21T05:05:42.262Z,90.70
2019-05-21T05:08:11.350Z,90.80
2019-05-21T05:10:40.617Z,91.00
2019-05-21T05:13:09.728Z,91.10
2019-05-21T05:15:39.102Z,91.00
2019-05-21T05:18:08.270Z,90.80
2019-05-21T05:20:37.564Z,90.80
2019-05-21T05:23:06.888Z,90.70
2019-05-21T05:25:35.734Z,90.60
2019-05-21T05:28:05.001Z,90.60
2019-05-21T05:30:34.147Z,90.70
2019-05-21T05:33:03.256Z,90.70
2019-05-21T05:35:32.389Z,90.80
2019-05-21T05:38:01.494Z,90.70
2019-05-21T05:40:30.918Z,90.60
2019-05-21T05:43:00.100Z,90.60
2019-05-21T05:45:29.294Z,90.50
2019-05-21T05:47:58.411Z,90.20
2019-05-21T05:50:32.305Z,90.20
2019-05-21T05:53:01.474Z,90.40
2019-05-21T05:55:30.541Z,90.30
2019-05-21T05:57:59.623Z,90.50
2019-05-21T06:00:28.792Z,90.50
2019-05-21T06:02:58.188Z,90.50
2019-05-21T06:05:27.479Z,90.60
2019-05-21T06:07:59.821Z,90.40
2019-05-21T06:10:27.485Z,90.50
2019-05-21T06:12:56.815Z,90.40
2019-05-21T06:15:25.978Z,90.50
2019-05-21T06:17:55.230Z,90.50
2019-05-21T06:20:24.865Z,90.40
2019-05-21T06:22:55.378Z,90.10
2019-05-21T06:25:24.702Z,90.20
2019-05-21T06:27:53.633Z,89.90
2019-05-21T06:30:22.766Z,90.00
2019-05-21T06:32:51.965Z,90.00
2019-05-21T06:35:21.146Z,89.60
2019-05-21T06:37:50.660Z,89.60
2019-05-21T06:40:19.982Z,89.10
2019-05-21T06:42:49.242Z,88.40
2019-05-21T06:45:19.126Z,88.50
2019-05-21T06:47:48.160Z,88.60
2019-05-21T06:50:17.389Z,87.60
2019-05-21T06:52:46.421Z,87.90
2019-05-21T06:55:15.571Z,87.10
2019-05-21T06:57:44.885Z,86.80
2019-05-21T07:00:15.861Z,86.80
2019-05-21T07:02:45.114Z,87.30
2019-05-21T07:05:14.475Z,87.30
2019-05-21T07:07:43.587Z,87.60
2019-05-21T07:10:13.083Z,86.40
2019-05-21T07:12:42.195Z,87.00
2019-05-21T07:15:11.713Z,86.50
2019-05-21T07:17:40.857Z,86.80
2019-05-21T07:20:10.453Z,87.90
2019-05-21T07:22:39.649Z,86.20
2019-05-21T07:25:09.071Z,85.70
2019-05-21T07:27:38.088Z,85.50
2019-05-21T07:30:09.664Z,85.10
2019-05-21T07:32:37.841Z,83.60
2019-05-21T07:35:07.152Z,84.30
2019-05-21T07:37:36.604Z,84.60
2019-05-21T07:40:08.330Z,84.70
2019-05-21T07:42:37.603Z,84.90
2019-05-21T07:45:07.620Z,83.70
2019-05-21T07:47:36.950Z,82.00
2019-05-21T07:50:07.102Z,82.20
2019-05-21T07:52:36.200Z,82.00
2019-05-21T07:55:05.720Z,82.20
2019-05-21T07:57:34.874Z,82.20
2019-05-21T08:00:05.505Z,82.40
2019-05-21T08:02:34.560Z,82.60
2019-05-21T08:05:04.079Z,82.60
2019-05-21T08:07:33.135Z,83.00
2019-05-21T08:10:02.156Z,82.00
2019-05-21T08:12:38.990Z,82.80
2019-05-21T08:15:02.149Z,83.00
2019-05-21T08:17:31.405Z,83.40
2019-05-21T08:20:09.524Z,81.40
2019-05-21T08:22:31.903Z,81.20
2019-05-21T08:25:01.367Z,79.30
2019-05-21T08:27:30.802Z,79.90
2019-05-21T08:29:59.926Z,79.90
2019-05-21T08:32:29.110Z,79.60
2019-05-21T08:34:58.250Z,80.20
2019-05-21T08:37:27.438Z,80.20
2019-05-21T08:39:56.821Z,80.20
2019-05-21T08:42:25.999Z,79.50
2019-05-21T08:44:55.372Z,79.80
2019-05-21T08:47:24.585Z,79.50
2019-05-21T08:49:53.652Z,79.30
2019-05-21T08:52:23.026Z,79.20
2019-05-21T08:54:55.782Z,77.60
2019-05-21T08:57:23.106Z,77.20
2019-05-21T08:59:52.217Z,78.20
2019-05-21T09:02:21.312Z,79.40
2019-05-21T09:04:50.501Z,78.30
2019-05-21T09:07:19.484Z,79.40
2019-05-21T09:09:51.195Z,79.50
2019-05-21T09:12:19.544Z,78.80
2019-05-21T09:14:48.825Z,78.70
2019-05-21T09:17:17.896Z,79.70
2019-05-21T09:19:47.173Z,80.50
2019-05-21T09:22:16.369Z,78.30
2019-05-21T09:24:45.354Z,76.90
2019-05-21T09:27:14.525Z,76.70
2019-05-21T09:29:43.640Z,75.90
2019-05-21T09:32:12.764Z,75.20
2019-05-21T09:34:48.856Z,76.80
2019-05-21T09:37:19.533Z,78.40
2019-05-21T09:39:44.579Z,77.10
2019-05-21T09:42:13.692Z,78.00
2019-05-21T09:44:44.527Z,77.20
2019-05-21T09:47:15.080Z,76.90
2019-05-21T09:49:44.111Z,76.40
2019-05-21T09:52:13.284Z,77.10
2019-05-21T09:54:44.475Z,76.00
2019-05-21T09:57:15.252Z,75.60
2019-05-21T10:00:02.153Z,75.80
2019-05-21T10:02:33.506Z,75.90
2019-05-21T10:05:02.738Z,77.20
2019-05-21T10:07:40.134Z,78.10
2019-05-21T10:10:02.447Z,76.40
2019-05-21T10:12:31.509Z,76.90
2019-05-21T10:15:00.846Z,76.10
2019-05-21T10:17:31.435Z,76.40
2019-05-21T10:20:01.007Z,77.00
2019-05-21T10:22:30.112Z,76.70
2019-05-21T10:24:59.442Z,78.00
2019-05-21T10:27:28.653Z,77.00
2019-05-21T10:29:57.638Z,75.90
2019-05-21T10:32:28.219Z,75.30
2019-05-21T10:34:57.408Z,75.20
2019-05-21T10:37:26.795Z,74.00
2019-05-21T10:39:55.965Z,74.70
2019-05-21T10:42:25.827Z,73.80
2019-05-21T10:44:55.054Z,72.20
2019-05-21T10:47:25.355Z,72.80
2019-05-21T10:49:55.541Z,72.10
2019-05-21T10:52:24.732Z,72.10
2019-05-21T10:54:53.682Z,71.80
2019-05-21T10:57:24.127Z,71.00
2019-05-21T10:59:53.404Z,71.30
2019-05-21T11:02:24.070Z,72.20
2019-05-21T11:04:54.787Z,71.00
2019-05-21T11:07:24.175Z,69.10
2019-05-21T11:09:53.969Z,66.70
2019-05-21T11:12:23.241Z,66.10
2019-05-21T11:14:52.488Z,67.20
2019-05-21T11:17:21.924Z,67.40
2019-05-21T11:19:51.305Z,67.40
2019-05-21T11:22:20.510Z,66.10
2019-05-21T11:24:49.875Z,65.20
2019-05-21T11:27:19.098Z,64.70
2019-05-21T11:29:48.439Z,65.30
2019-05-21T11:32:17.607Z,66.00
2019-05-21T11:34:49.961Z,65.30
2019-05-21T11:37:17.743Z,65.10
2019-05-21T11:39:46.853Z,64.70
2019-05-21T11:42:16.195Z,65.90
2019-05-21T11:44:45.732Z,65.00
2019-05-21T11:47:15.024Z,65.00
2019-05-21T11:49:44.358Z,64.90
2019-05-21T11:52:13.772Z,63.10
2019-05-21T11:54:43.034Z,64.70
2019-05-21T11:57:13.822Z,65.80
2019-05-21T11:59:42.747Z,66.20
2019-05-21T12:02:13.305Z,67.00
2019-05-21T12:04:42.296Z,67.10
2019-05-21T12:07:12.109Z,67.30
2019-05-21T12:09:41.462Z,68.40
2019-05-21T12:12:10.406Z,67.20
2019-05-21T12:14:39.548Z,66.60
2019-05-21T12:17:08.506Z,66.10
2019-05-21T12:19:37.772Z,66.00
2019-05-21T12:22:06.825Z,67.10
2019-05-21T12:24:36.269Z,67.10
2019-05-21T12:27:05.487Z,66.10
2019-05-21T12:29:34.934Z,65.20
2019-05-21T12:32:05.859Z,65.40
2019-05-21T12:34:38.597Z,65.30
2019-05-21T12:37:06.223Z,64.00
2019-05-21T12:39:35.487Z,64.90
2019-05-21T12:42:04.710Z,65.50
2019-05-21T12:44:33.848Z,66.00
2019-05-21T12:47:03.011Z,66.90
2019-05-21T12:49:32.388Z,66.40
2019-05-21T12:52:02.906Z,65.70
2019-05-21T12:54:32.187Z,66.40
2019-05-21T12:57:01.381Z,65.90
2019-05-21T12:59:30.438Z,63.80
2019-05-21T13:01:59.626Z,63.50
2019-05-21T13:04:28.762Z,63.20
2019-05-21T13:06:57.869Z,62.90
2019-05-21T13:09:32.923Z,62.40
2019-05-21T13:11:57.743Z,62.90
2019-05-21T13:14:26.806Z,63.90
2019-05-21T13:16:57.226Z,64.40
2019-05-21T13:19:28.770Z,65.50
2019-05-21T13:21:58.985Z,64.50
2019-05-21T13:24:28.287Z,65.50
2019-05-21T13:26:57.307Z,65.00
2019-05-21T13:29:27.700Z,65.10
2019-05-21T13:31:56.720Z,65.40
2019-05-21T13:34:25.890Z,66.30
2019-05-21T13:36:55.263Z,66.80
2019-05-21T13:39:25.771Z,66.70
2019-05-21T13:41:55.327Z,68.40
2019-05-21T13:44:24.517Z,68.40
2019-05-21T13:46:53.590Z,68.60
2019-05-21T13:49:22.695Z,68.40
2019-05-21T13:51:52.800Z,69.00
2019-05-21T13:54:21.940Z,69.40
2019-05-21T13:56:51.270Z,69.10
2019-05-21T13:59:20.503Z,69.20
2019-05-21T14:01:49.882Z,69.40
2019-05-21T14:04:19.191Z,69.10
2019-05-21T14:06:51.159Z,68.70
2019-05-21T14:09:20.570Z,68.60
2019-05-21T14:11:50.021Z,69.00
2019-05-21T14:14:19.083Z,69.50
2019-05-21T14:16:49.151Z,69.00
2019-05-21T14:19:18.453Z,68.20
2019-05-21T14:21:47.860Z,68.80
2019-05-21T14:24:17.320Z,68.00
2019-05-21T14:26:46.529Z,68.30
2019-05-21T14:29:15.962Z,67.70
2019-05-21T14:31:46.567Z,68.50
2019-05-21T14:34:15.735Z,68.30
2019-05-21T14:36:44.949Z,67.60
2019-05-21T14:39:15.603Z,67.00
2019-05-21T14:41:45.022Z,67.30
2019-05-21T14:44:14.055Z,67.30
2019-05-21T14:46:43.356Z,66.20
2019-05-21T14:49:12.363Z,65.20
2019-05-21T14:51:41.713Z,65.00
2019-05-21T14:54:25.322Z,64.30
2019-05-21T14:56:46.369Z,63.10
2019-05-21T14:59:12.664Z,63.80
2019-05-21T15:01:41.779Z,62.20
2019-05-21T15:04:11.111Z,61.70
2019-05-21T15:06:40.187Z,62.70
2019-05-21T15:09:09.623Z,62.90
2019-05-21T15:11:40.350Z,61.40
2019-05-21T15:14:09.731Z,61.80
2019-05-21T15:16:39.095Z,62.80
2019-05-21T15:19:08.257Z,63.90
2019-05-21T15:21:39.083Z,63.70
2019-05-21T15:24:08.514Z,62.50
2019-05-21T15:26:37.716Z,61.90
2019-05-21T15:29:07.101Z,62.60
2019-05-21T15:31:36.331Z,61.80
2019-05-21T15:34:06.394Z,61.70
2019-05-21T15:36:35.527Z,60.70
2019-05-21T15:39:06.708Z,61.30
2019-05-21T15:41:37.626Z,62.00
2019-05-21T15:44:06.846Z,62.90
2019-05-21T15:46:47.870Z,63.10
2019-05-21T15:49:08.774Z,63.40
2019-05-21T15:51:39.494Z,63.30
2019-05-21T15:54:08.799Z,63.00
2019-05-21T15:56:37.873Z,62.10
2019-05-21T15:59:07.075Z,63.20
2019-05-21T16:01:39.926Z,61.20
2019-05-21T16:04:07.102Z,62.10
2019-05-21T16:06:36.349Z,62.50
2019-05-21T16:09:09.016Z,63.20
2019-05-21T16:11:38.134Z,62.40
2019-05-21T16:14:07.377Z,60.30
2019-05-21T16:16:36.384Z,60.50
2019-05-21T16:19:05.780Z,60.40
2019-05-21T16:21:34.957Z,61.00
2019-05-21T16:24:07.375Z,61.40
2019-05-21T16:26:36.499Z,61.50
2019-05-21T16:29:05.771Z,59.70
2019-05-21T16:31:36.435Z,59.90
2019-05-21T16:34:06.283Z,59.90
2019-05-21T16:36:35.590Z,60.90
2019-05-21T16:39:06.839Z,61.90
2019-05-21T16:41:44.605Z,61.00
2019-05-21T16:44:07.202Z,60.70
2019-05-21T16:46:36.354Z,59.50
2019-05-21T16:49:05.787Z,59.50
2019-05-21T16:51:38.128Z,59.60
2019-05-21T16:54:07.300Z,59.50
2019-05-21T16:56:36.397Z,58.90
2019-05-21T16:59:05.655Z,59.00
2019-05-21T17:01:34.931Z,57.90
2019-05-21T17:04:04.351Z,57.90
2019-05-21T17:06:33.539Z,57.20
2019-05-21T17:09:04.356Z,57.00
2019-05-21T17:11:33.617Z,56.60
2019-05-21T17:14:02.862Z,56.40
2019-05-21T17:16:33.315Z,56.30
2019-05-21T17:19:02.443Z,55.90
2019-05-21T17:21:31.755Z,56.10
2019-05-21T17:24:01.008Z,55.80
2019-05-21T17:26:30.132Z,55.50
2019-05-21T17:29:00.587Z,56.40
2019-05-21T17:31:29.623Z,55.10
2019-05-21T17:33:58.640Z,55.40
2019-05-21T17:36:27.946Z,55.10
2019-05-21T17:38:57.327Z,55.50
2019-05-21T17:41:27.735Z,55.80
2019-05-21T17:43:58.138Z,54.90
2019-05-21T17:46:29.102Z,55.70
2019-05-21T17:48:58.137Z,54.60
2019-05-21T17:51:27.478Z,52.90
2019-05-21T17:53:58.650Z,53.40
2019-05-21T17:56:27.739Z,54.00
2019-05-21T17:58:57.162Z,53.90
2019-05-21T18:01:26.682Z,54.00
2019-05-21T18:03:56.340Z,54.90
2019-05-21T18:06:25.625Z,55.20
2019-05-21T18:08:56.239Z,55.60
2019-05-21T18:11:25.451Z,56.00
2019-05-21T18:13:54.720Z,56.10
2019-05-21T18:16:24.103Z,56.60
2019-05-21T18:18:53.420Z,56.50
2019-05-21T18:21:23.735Z,57.20
2019-05-21T18:23:53.031Z,57.00
2019-05-21T18:26:22.746Z,56.90
2019-05-21T18:28:52.033Z,57.30
2019-05-21T18:31:21.234Z,57.60
2019-05-21T18:33:50.651Z,56.70
2019-05-21T18:36:19.834Z,57.20
2019-05-21T18:38:49.171Z,57.10
2019-05-21T18:41:18.426Z,56.60
2019-05-21T18:43:50.078Z,57.40
2019-05-21T18:46:18.531Z,57.60
2019-05-21T18:48:47.660Z,57.60
2019-05-21T18:51:16.820Z,57.40
2019-05-21T18:53:46.729Z,57.00
2019-05-21T18:56:15.944Z,57.00
2019-05-21T18:58:44.968Z,57.60
2019-05-21T19:01:14.513Z,57.50
2019-05-21T19:03:43.650Z,57.90
2019-05-21T19:06:12.948Z,58.00
2019-05-21T19:08:42.205Z,58.20
2019-05-21T19:11:11.270Z,58.40
2019-05-21T19:13:40.444Z,58.90
2019-05-21T19:16:09.476Z,59.00
2019-05-21T19:18:38.651Z,60.40
2019-05-21T19:21:07.621Z,60.00
2019-05-21T19:23:36.786Z,60.30
2019-05-21T19:26:05.889Z,60.60
2019-05-21T19:28:35.489Z,61.10
2019-05-21T19:31:05.371Z,61.40
2019-05-21T19:33:34.417Z,61.60
2019-05-21T19:36:03.604Z,62.40
2019-05-21T19:38:32.635Z,62.60
2019-05-21T19:41:01.327Z,63.30
2019-05-21T19:43:30.275Z,63.70
2019-05-21T19:46:00.800Z,64.30
2019-05-21T19:48:31.175Z,64.40
2019-05-21T19:51:00.501Z,65.00
2019-05-21T19:53:30.015Z,65.30
2019-05-21T19:55:58.796Z,65.80
2019-05-21T19:58:27.506Z,66.70
2019-05-21T20:00:56.569Z,66.50
2019-05-21T20:03:25.397Z,66.40
2019-05-21T20:05:54.378Z,66.40
2019-05-21T20:08:23.838Z,66.90
2019-05-21T20:10:52.643Z,67.20
2019-05-21T20:13:32.181Z,67.50
2019-05-21T20:15:52.021Z,67.60
2019-05-21T20:18:21.339Z,67.70
2019-05-21T20:20:50.840Z,67.80
2019-05-21T20:23:19.799Z,67.70
2019-05-21T20:25:56.568Z,67.60
2019-05-21T20:28:19.982Z,68.20
2019-05-21T20:30:50.502Z,68.70
2019-05-21T20:33:19.953Z,68.70
2019-05-21T20:35:49.704Z,69.30
2019-05-21T20:38:19.323Z,69.30
2019-05-21T20:40:48.093Z,69.60
2019-05-21T20:43:16.958Z,69.70
2019-05-21T20:45:48.488Z,69.40
2019-05-21T20:48:18.766Z,70.00
2019-05-21T20:50:48.361Z,69.20
2019-05-21T20:53:17.186Z,69.00
2019-05-21T20:55:45.823Z,68.90
2019-05-21T20:58:14.619Z,68.70
2019-05-21T21:00:53.840Z,69.10
2019-05-21T21:03:23.151Z,69.80
2019-05-21T21:05:52.231Z,69.50
2019-05-21T21:08:22.421Z,69.80
2019-05-21T21:10:51.463Z,70.30
2019-05-21T21:13:20.363Z,70.20
2019-05-21T21:15:49.078Z,70.80
2019-05-21T21:18:17.866Z,71.10
2019-05-21T21:20:46.680Z,70.80
2019-05-21T21:23:17.359Z,71.70
2019-05-21T21:25:46.285Z,72.20
2019-05-21T21:28:14.891Z,72.20
2019-05-21T21:30:44.503Z,72.20
2019-05-21T21:33:13.544Z,72.40
2019-05-21T21:35:42.438Z,72.40
2019-05-21T21:38:13.082Z,72.40
2019-05-21T21:40:41.943Z,72.60
2019-05-21T21:43:10.485Z,72.60
2019-05-21T21:45:39.461Z,72.70
2019-05-21T21:48:11.127Z,72.80
2019-05-21T21:50:39.555Z,72.60
2019-05-21T21:53:08.439Z,72.40
2019-05-21T21:55:37.090Z,72.20
2019-05-21T21:58:05.812Z,71.80
2019-05-21T22:01:00.036Z,71.60
2019-05-21T22:03:33.877Z,71.90
2019-05-21T22:06:04.472Z,71.60
2019-05-21T22:08:33.915Z,71.50
2019-05-21T22:11:03.047Z,71.70
2019-05-21T22:13:31.757Z,71.70
2019-05-21T22:16:01.090Z,71.60
2019-05-21T22:18:30.410Z,71.70
2019-05-21T22:20:59.617Z,71.10
2019-05-21T22:23:28.740Z,71.30
2019-05-21T22:25:58.208Z,71.20
2019-05-21T22:28:26.749Z,70.80
2019-05-21T22:30:55.774Z,71.30
2019-05-21T22:33:24.552Z,71.40
2019-05-21T22:35:54.350Z,71.40
2019-05-21T22:38:23.887Z,71.60
2019-05-21T22:40:52.674Z,71.80
2019-05-21T22:43:21.520Z,71.30
2019-05-21T22:45:50.340Z,72.00
2019-05-21T22:48:19.153Z,72.20
2019-05-21T22:50:47.831Z,72.80
2019-05-21T22:53:16.505Z,73.40
2019-05-21T22:55:45.167Z,73.60
2019-05-21T22:58:14.648Z,74.40
2019-05-21T23:00:44.270Z,74.80
2019-05-21T23:03:13.081Z,75.20
2019-05-21T23:05:41.827Z,75.50
2019-05-21T23:08:10.875Z,75.80
2019-05-21T23:10:39.599Z,75.90
2019-05-21T23:13:08.299Z,76.40
2019-05-21T23:15:37.234Z,76.20
2019-05-21T23:18:06.078Z,76.70
2019-05-21T23:20:36.462Z,76.60
2019-05-21T23:23:06.064Z,76.50
2019-05-21T23:25:36.644Z,76.50
2019-05-21T23:28:05.807Z,76.60
2019-05-21T23:30:34.764Z,77.00
2019-05-21T23:33:04.626Z,77.30
2019-05-21T23:35:37.134Z,77.40
2019-05-21T23:38:59.404Z,77.10
2019-05-21T23:41:29.569Z,77.20
2019-05-21T23:44:00.017Z,77.90
2019-05-21T23:46:29.774Z,77.70
2019-05-21T23:48:58.453Z,78.00
2019-05-21T23:51:27.124Z,77.70
2019-05-21T23:53:55.864Z,77.70
2019-05-21T23:56:24.679Z,78.10
2019-05-21T23:58:53.732Z,78.00
